1887 NOT_NAMED (1887247N12116)


IBTrACS version v04r00. Visit IBTrACS website for data access.
Please direct all questions to the IBTrACS Q and A forum

Storm track - Intensity - Wind Radii - Intensity Data - Source Data - All data

Summary Information

Storm ID 1887247N12116
Start Sep 3 16Z
Landfall Sep 7 16Z, Sep 8 03Z
End Sep 8 04Z
ATCF IDs
Track status Best track data.

Storm track plot

Map of storm track

Intensity plots

No Intensity information for this storm


Radial wind information

No radial wind information for this storm


Position and Intensity Table

BASIN ISO_TIME_________ NATURE LAT LON
degrees north degrees east
WP 1887-09-03 16:00:00 NR 11.50 116.40
WP 18:00:00 NR 11.72 116.24
WP 21:00:00 NR 12.03 116.01
WP 1887-09-04 00:00:00 NR 12.33 115.80
WP 03:00:00 NR 12.61 115.64
WP 04:00:00 NR 12.70 115.60
WP 06:00:00 NR 12.86 115.54
WP 09:00:00 NR 13.08 115.48
WP 12:00:00 NR 13.27 115.45
WP 15:00:00 NR 13.44 115.42
WP 16:00:00 NR 13.50 115.40
WP 18:00:00 NR 13.62 115.34
WP 21:00:00 NR 13.78 115.25
WP 1887-09-05 00:00:00 NR 13.93 115.14
WP 03:00:00 NR 14.06 115.04
WP 04:00:00 NR 14.10 115.00
WP 06:00:00 NR 14.17 114.93
WP 09:00:00 NR 14.27 114.83
WP 12:00:00 NR 14.36 114.73
WP 15:00:00 NR 14.46 114.63
WP 16:00:00 NR 14.50 114.60
WP 18:00:00 NR 14.59 114.55
WP 21:00:00 NR 14.74 114.48
WP 1887-09-06 00:00:00 NR 14.90 114.41
WP 03:00:00 NR 15.05 114.33
WP 04:00:00 NR 15.10 114.30
WP 06:00:00 NR 15.18 114.23
WP 09:00:00 NR 15.30 114.10
WP 12:00:00 NR 15.42 113.97
WP 15:00:00 NR 15.55 113.84
WP 16:00:00 NR 15.60 113.80
WP 18:00:00 NR 15.68 113.81
WP 21:00:00 NR 15.81 113.83
WP 1887-09-07 00:00:00 NR 16.00 113.77
WP 03:00:00 NR 16.28 113.53
WP 04:00:00 NR 16.40 113.40
WP 06:00:00 NR 16.71 113.02
WP 09:00:00 NR 17.27 112.26
WP 12:00:00 NR 17.87 111.32
WP 15:00:00 NR 18.43 110.26
WP 16:00:00 NR 18.60 109.90
WP 18:00:00 NR 18.89 109.16
WP 21:00:00 NR 19.24 108.05
WP 1887-09-08 00:00:00 NR 19.51 106.92
WP 03:00:00 NR 19.73 105.78
WP 04:00:00 NR 19.80 105.40

Source Information

Agency Information
USA
TOKYO
CMA
HKO
NEWDELHI
REUNION
BOM
NADI
WELLINGTON
DS824
TD9636 cons_worldwide_trop_cyclone_18710101-19891231-003:Line=450
TD9635
NEUMANN
MLC

All available IBTrACS Data

SEASON BASIN SUBBASIN ISO_TIME_________ NATURE LAT LON DIST2LAND LANDFALL IFLAG USA SSHS TD9636 LAT TD9636 LON TD9636 STAGE STORM SPEED STORM DIR
Year degrees north degrees east km km 1 degrees north degrees east kts degrees
1887 WP MM 1887-09-03 16:00:00 NR 11.50 116.40 299 299 __________O___ -1 11.50 116.40 7 8 323
1887 WP MM 18:00:00 NR 11.72 116.24 330 330 __________P___ -1 11.72 116.24 7 8 324
1887 WP MM 21:00:00 NR 12.03 116.01 370 370 __________P___ -1 12.03 116.01 7 8 325
1887 WP MM 1887-09-04 00:00:00 NR 12.33 115.80 409 414 __________P___ -1 12.33 115.80 7 7 328
1887 WP MM 03:00:00 NR 12.61 115.64 442 442 __________P___ -1 12.61 115.64 7 6 332
1887 WP MM 04:00:00 NR 12.70 115.60 446 446 __________O___ -1 12.70 115.60 7 5 337
1887 WP MM 06:00:00 NR 12.86 115.54 465 465 __________P___ -1 12.86 115.54 7 5 344
1887 WP MM 09:00:00 NR 13.08 115.48 474 474 __________P___ -1 13.08 115.48 7 4 348
1887 WP MM 12:00:00 NR 13.27 115.45 494 494 __________P___ -1 13.27 115.45 7 4 349
1887 WP MM 15:00:00 NR 13.44 115.42 499 505 __________P___ -1 13.44 115.42 7 4 348
1887 WP MM 16:00:00 NR 13.50 115.40 505 505 __________O___ -1 13.50 115.40 7 4 338
1887 WP MM 18:00:00 NR 13.62 115.34 520 520 __________P___ -1 13.62 115.34 7 4 332
1887 WP MM 21:00:00 NR 13.78 115.25 536 532 __________P___ -1 13.78 115.25 7 4 328
1887 WP MM 1887-09-05 00:00:00 NR 13.93 115.14 543 539 __________P___ -1 13.93 115.14 7 4 324
1887 WP MM 03:00:00 NR 14.06 115.04 546 546 __________P___ -1 14.06 115.04 7 3 321
1887 WP MM 04:00:00 NR 14.10 115.00 546 546 __________O___ -1 14.10 115.00 7 3 318
1887 WP MM 06:00:00 NR 14.17 114.93 553 553 __________P___ -1 14.17 114.93 7 3 316
1887 WP MM 09:00:00 NR 14.27 114.83 559 559 __________P___ -1 14.27 114.83 7 3 314
1887 WP MM 12:00:00 NR 14.36 114.73 565 565 __________P___ -1 14.36 114.73 7 3 315
1887 WP MM 15:00:00 NR 14.46 114.63 572 572 __________P___ -1 14.46 114.63 7 3 320
1887 WP MM 16:00:00 NR 14.50 114.60 572 566 __________O___ -1 14.50 114.60 7 3 327
1887 WP MM 18:00:00 NR 14.59 114.55 566 566 __________P___ -1 14.59 114.55 7 3 334
1887 WP MM 21:00:00 NR 14.74 114.48 567 558 __________P___ -1 14.74 114.48 7 3 336
1887 WP MM 1887-09-06 00:00:00 NR 14.90 114.41 560 552 __________P___ -1 14.90 114.41 7 3 336
1887 WP MM 03:00:00 NR 15.05 114.33 555 555 __________P___ -1 15.05 114.33 7 3 333
1887 WP MM 04:00:00 NR 15.10 114.30 555 547 __________O___ -1 15.10 114.30 3 3 321
1887 WP MM 06:00:00 NR 15.18 114.23 547 539 __________P___ -1 15.18 114.23 3 3 315
1887 WP MM 09:00:00 NR 15.30 114.10 539 529 __________P___ -1 15.30 114.10 3 3 313
1887 WP MM 12:00:00 NR 15.42 113.97 531 508 __________P___ -1 15.42 113.97 3 4 315
1887 WP MM 15:00:00 NR 15.55 113.84 508 500 __________P___ -1 15.55 113.84 3 4 318
1887 WP MM 16:00:00 NR 15.60 113.80 500 493 __________O___ -1 15.60 113.80 4 3 340
1887 WP MM 18:00:00 NR 15.68 113.81 493 485 __________P___ -1 15.68 113.81 4 3 0
1887 WP MM 21:00:00 NR 15.81 113.83 485 469 __________P___ -1 15.81 113.83 4 3 352
1887 WP MM 1887-09-07 00:00:00 NR 16.00 113.77 469 423 __________P___ -1 16.00 113.77 4 5 329
1887 WP MM 03:00:00 NR 16.28 113.53 423 408 __________P___ -1 16.28 113.53 4 8 318
1887 WP MM 04:00:00 NR 16.40 113.40 408 354 __________O___ -1 16.40 113.40 4 13 311
1887 WP MM 06:00:00 NR 16.71 113.02 354 253 __________P___ -1 16.71 113.02 4 17 309
1887 WP MM 09:00:00 NR 17.27 112.26 253 130 __________P___ -1 17.27 112.26 4 20 305
1887 WP MM 12:00:00 NR 17.87 111.32 130 23 __________P___ -1 17.87 111.32 4 22 301
1887 WP MM 15:00:00 NR 18.43 110.26 23 0 __________P___ -1 18.43 110.26 4 23 299
1887 WP MM 16:00:00 NR 18.60 109.90 0 0 __________O___ -1 18.60 109.90 4 23 294
1887 WP MM 18:00:00 NR 18.89 109.16 0 0 __________P___ -1 18.89 109.16 4 22 290
1887 WP MM 21:00:00 NR 19.24 108.05 63 62 __________P___ -1 19.24 108.05 4 22 286
1887 WP MM 1887-09-08 00:00:00 NR 19.51 106.92 88 0 __________P___ -1 19.51 106.92 4 22 283
1887 WP MM 03:00:00 NR 19.73 105.78 0 0 __________P___ -1 19.73 105.78 4 22 281
1887 WP MM 04:00:00 NR 19.80 105.40 0 __________O___ -1 19.80 105.40 7 22 281